Time;durP1;ratioP1;P1;durP2;ratioP2;P2;SDS_P1;SDS_P2;PMS_P1;PMS_P2;Temp;Humidity;BMP_temperature;BMP_pressure;BME280_temperature;BME280_humidity;BME280_pressure;Samples;Min_cycle;Max_cycle;Signal;HPM_P1;HPM_P2
2024/01/23 00:00:27;;;;;;;10.13;7.20;;;13.20;99.50;;;;;;4592966;19;20007;-83
2024/01/23 00:02:20;;;;;;;12.00;7.57;;;13.10;99.50;;;;;;4592701;19;20015;-83
2024/01/23 00:03:57;;;;;;;12.60;8.07;;;13.10;99.50;;;;;;4591474;19;20351;-83
2024/01/23 00:05:32;;;;;;;10.70;7.03;;;13.20;99.50;;;;;;4591710;19;20025;-83
2024/01/23 00:07:06;;;;;;;12.27;7.63;;;13.10;99.60;;;;;;4593137;19;20437;-83
2024/01/23 00:08:41;;;;;;;10.67;7.23;;;13.10;99.70;;;;;;4593128;19;20090;-83
2024/01/23 00:10:15;;;;;;;9.57;6.80;;;13.20;99.90;;;;;;4592759;19;19998;-83
2024/01/23 00:11:49;;;;;;;11.50;7.73;;;13.20;99.90;;;;;;4592944;19;20007;-83
2024/01/23 00:13:25;;;;;;;9.90;7.00;;;13.20;99.90;;;;;;4591371;19;20437;-83
2024/01/23 00:15:00;;;;;;;10.10;7.40;;;13.10;99.90;;;;;;4592227;19;20328;-83
2024/01/23 00:16:34;;;;;;;11.23;6.77;;;13.10;99.90;;;;;;4592913;19;20006;-83
2024/01/23 00:18:09;;;;;;;11.77;7.50;;;13.10;99.90;;;;;;4592730;19;20021;-83
2024/01/23 00:19:43;;;;;;;10.50;7.33;;;13.10;99.90;;;;;;4592560;19;20019;-83
2024/01/23 00:21:20;;;;;;;11.27;6.73;;;13.10;99.90;;;;;;4592513;19;19999;-83
2024/01/23 00:22:56;;;;;;;11.30;7.40;;;13.10;99.90;;;;;;4592388;19;20023;-83
2024/01/23 00:24:30;;;;;;;10.30;7.37;;;13.10;99.90;;;;;;4592534;19;20003;-83
2024/01/23 00:26:04;;;;;;;12.17;7.03;;;13.10;99.90;;;;;;4590636;19;20010;-83
2024/01/23 00:27:40;;;;;;;11.27;7.27;;;13.10;99.90;;;;;;4592477;19;20014;-84
2024/01/23 00:29:15;;;;;;;9.47;6.27;;;13.00;99.90;;;;;;4592492;19;20013;-83
2024/01/23 00:30:49;;;;;;;9.57;6.30;;;13.10;99.90;;;;;;4592927;19;20007;-83
2024/01/23 00:32:30;;;;;;;11.17;6.73;;;13.10;99.90;;;;;;4592737;19;20432;-83
2024/01/23 00:34:05;;;;;;;9.23;6.87;;;13.00;99.80;;;;;;4591178;19;20010;-83
2024/01/23 00:35:40;;;;;;;12.60;8.00;;;13.00;99.90;;;;;;4591592;19;20010;-82
2024/01/23 00:37:15;;;;;;;12.87;7.77;;;13.10;99.80;;;;;;4592672;19;20002;-83
2024/01/23 00:38:49;;;;;;;12.97;8.13;;;13.00;99.90;;;;;;4591842;19;20006;-83
2024/01/23 00:40:25;;;;;;;10.53;7.70;;;13.00;99.70;;;;;;4592761;19;20353;-83
2024/01/23 00:41:59;;;;;;;14.87;9.00;;;13.00;99.90;;;;;;4592342;19;20025;-83
2024/01/23 00:43:33;;;;;;;14.50;8.87;;;13.00;99.70;;;;;;4590919;19;20057;-83
2024/01/23 00:45:09;;;;;;;13.07;7.40;;;13.00;99.70;;;;;;4591766;19;20433;-83
2024/01/23 00:46:43;;;;;;;14.90;8.43;;;13.10;99.70;;;;;;4592203;19;20035;-83
2024/01/23 00:48:18;;;;;;;13.67;9.17;;;13.00;99.60;;;;;;4592147;19;19999;-83
2024/01/23 00:49:54;;;;;;;11.60;7.30;;;13.00;99.60;;;;;;4591526;19;20006;-83
2024/01/23 00:51:29;;;;;;;11.23;7.37;;;13.00;99.70;;;;;;4590711;19;20006;-83
2024/01/23 00:53:03;;;;;;;14.07;8.63;;;13.00;99.60;;;;;;4591842;19;20429;-83
2024/01/23 00:54:38;;;;;;;12.60;7.50;;;13.00;99.60;;;;;;4590720;19;20010;-83
2024/01/23 00:56:13;;;;;;;10.40;6.60;;;13.00;99.70;;;;;;4590704;19;20418;-83
2024/01/23 00:57:47;;;;;;;10.33;6.63;;;13.00;99.70;;;;;;4592211;19;20002;-83
2024/01/23 00:59:22;;;;;;;10.17;6.17;;;13.00;99.70;;;;;;4590836;19;20032;-83
2024/01/23 01:16:38;;;;;;;9.93;6.23;;;12.90;99.70;;;;;;4564641;19;20017;-82
2024/01/23 01:18:14;;;;;;;11.53;6.90;;;12.90;99.70;;;;;;4591152;19;20018;-83
2024/01/23 01:19:48;;;;;;;10.00;5.43;;;12.90;99.80;;;;;;4591612;19;20011;-83
2024/01/23 01:21:24;;;;;;;9.90;6.17;;;12.90;99.70;;;;;;4591663;19;20007;-83
2024/01/23 01:23:00;;;;;;;11.60;6.37;;;12.90;99.70;;;;;;4591584;19;20424;-82
2024/01/23 01:24:33;;;;;;;9.93;6.00;;;12.90;99.70;;;;;;4590188;19;20013;-82
2024/01/23 01:26:08;;;;;;;10.30;6.10;;;12.90;99.70;;;;;;4589744;19;20338;-82
2024/01/23 01:27:44;;;;;;;13.73;6.50;;;12.90;99.60;;;;;;4591222;19;20009;-82
2024/01/23 01:29:18;;;;;;;10.93;6.80;;;12.90;99.60;;;;;;4591711;19;20324;-82
2024/01/23 01:30:52;;;;;;;11.43;5.77;;;12.90;99.70;;;;;;4591703;19;20031;-83
2024/01/23 01:32:28;;;;;;;9.50;5.80;;;12.90;99.70;;;;;;4592209;19;20013;-82
2024/01/23 01:34:03;;;;;;;11.20;6.10;;;12.90;99.70;;;;;;4591637;19;20002;-82
2024/01/23 01:35:38;;;;;;;9.00;5.70;;;12.90;99.60;;;;;;4591647;19;20425;-82
2024/01/23 01:37:13;;;;;;;9.10;6.00;;;12.90;99.70;;;;;;4588561;19;20038;-82
2024/01/23 01:38:48;;;;;;;10.60;5.97;;;12.90;99.70;;;;;;4590096;19;20007;-82
2024/01/23 01:40:22;;;;;;;11.53;6.23;;;12.90;99.70;;;;;;4591550;19;20324;-82
2024/01/23 01:41:57;;;;;;;9.20;6.00;;;12.90;99.60;;;;;;4591269;19;20006;-82
2024/01/23 01:43:36;;;;;;;11.27;6.53;;;12.90;99.60;;;;;;4589780;19;20043;-82
2024/01/23 01:45:14;;;;;;;11.70;6.67;;;12.90;99.50;;;;;;4591011;19;20009;-82
2024/01/23 01:46:50;;;;;;;10.03;5.60;;;12.90;99.50;;;;;;4590483;19;20010;-82
2024/01/23 01:48:25;;;;;;;9.57;6.40;;;12.90;99.40;;;;;;4591119;19;20002;-83
2024/01/23 01:50:00;;;;;;;9.43;5.93;;;12.90;99.30;;;;;;4591133;19;20066;-82
2024/01/23 01:51:36;;;;;;;10.03;5.87;;;12.90;99.30;;;;;;4591290;19;20336;-82
2024/01/23 01:53:11;;;;;;;8.83;5.63;;;12.80;99.20;;;;;;4591139;19;20002;-83
2024/01/23 01:54:46;;;;;;;9.80;5.60;;;12.80;99.20;;;;;;4590728;19;20010;-82
2024/01/23 01:56:23;;;;;;;8.47;5.13;;;12.80;99.00;;;;;;4590399;19;20014;-82
2024/01/23 01:57:57;;;;;;;8.13;5.60;;;12.80;99.00;;;;;;4589665;19;20299;-82
2024/01/23 01:59:31;;;;;;;10.63;6.17;;;12.80;99.40;;;;;;4590932;19;19999;-82
2024/01/23 02:01:07;;;;;;;8.37;5.90;;;12.90;98.90;;;;;;4591317;19;20011;-82
2024/01/23 02:02:43;;;;;;;12.03;6.37;;;12.90;98.90;;;;;;4595517;19;19998;-83
2024/01/23 02:04:18;;;;;;;9.57;6.03;;;12.90;98.70;;;;;;4594204;19;20030;-82
2024/01/23 02:05:54;;;;;;;10.90;6.43;;;12.90;98.80;;;;;;4594903;19;20066;-82
2024/01/23 02:07:28;;;;;;;11.17;7.00;;;13.00;98.50;;;;;;4595393;19;19999;-82
2024/01/23 02:09:02;;;;;;;10.80;6.70;;;13.00;98.40;;;;;;4595458;19;20013;-82
2024/01/23 02:10:38;;;;;;;9.60;5.70;;;13.00;98.30;;;;;;4595470;19;20365;-83
2024/01/23 02:12:12;;;;;;;9.93;6.87;;;13.00;98.20;;;;;;4595526;19;20006;-83
2024/01/23 02:13:46;;;;;;;10.87;6.00;;;13.00;98.10;;;;;;4595501;19;19998;-82
2024/01/23 02:15:22;;;;;;;9.60;6.30;;;13.10;98.00;;;;;;4595448;19;20310;-83
2024/01/23 02:16:57;;;;;;;8.97;6.10;;;13.10;98.00;;;;;;4593929;19;20103;-82
2024/01/23 02:18:31;;;;;;;10.33;6.73;;;13.10;97.90;;;;;;4594766;19;20003;-83
2024/01/23 02:20:06;;;;;;;9.97;6.20;;;13.10;97.80;;;;;;4595062;19;20015;-82
2024/01/23 02:21:42;;;;;;;8.90;5.77;;;13.10;97.80;;;;;;4595351;19;20358;-83
2024/01/23 02:23:17;;;;;;;8.83;5.67;;;13.10;97.70;;;;;;4593944;19;20003;-83
2024/01/23 02:24:53;;;;;;;10.27;6.10;;;13.10;97.70;;;;;;4594010;19;20461;-83
2024/01/23 02:26:29;;;;;;;10.10;6.97;;;13.20;97.60;;;;;;4593913;19;20002;-83
2024/01/23 02:28:04;;;;;;;9.27;6.00;;;13.20;97.70;;;;;;4595271;19;20005;-83
2024/01/23 02:29:40;;;;;;;10.87;6.33;;;13.20;97.80;;;;;;4594986;19;20006;-83
2024/01/23 02:31:14;;;;;;;12.00;7.40;;;13.20;97.70;;;;;;4594801;19;20022;-83
2024/01/23 02:32:49;;;;;;;9.97;5.97;;;13.20;97.70;;;;;;4595123;19;19999;-83
2024/01/23 02:34:26;;;;;;;10.87;6.07;;;13.20;97.60;;;;;;4594914;19;20023;-83
2024/01/23 02:36:01;;;;;;;10.50;7.17;;;13.20;97.60;;;;;;4594513;19;20031;-83
2024/01/23 02:37:35;;;;;;;10.10;6.33;;;13.20;97.70;;;;;;4594752;19;20007;-83
2024/01/23 02:39:11;;;;;;;11.53;7.13;;;13.20;97.60;;;;;;4593820;19;20009;-83
2024/01/23 02:40:45;;;;;;;10.37;6.50;;;13.30;97.60;;;;;;4594694;19;19998;-83
2024/01/23 02:42:20;;;;;;;10.57;6.70;;;13.30;97.60;;;;;;4594709;19;20006;-82
2024/01/23 02:43:56;;;;;;;11.97;6.77;;;13.30;97.60;;;;;;4594774;19;20010;-83
2024/01/23 02:45:30;;;;;;;16.77;10.70;;;13.30;97.60;;;;;;4594598;19;20030;-83
2024/01/23 02:47:04;;;;;;;10.30;6.97;;;13.30;97.60;;;;;;4593483;19;20037;-83
2024/01/23 02:48:39;;;;;;;10.30;6.03;;;13.30;97.70;;;;;;4594591;19;20007;-83
2024/01/23 02:50:14;;;;;;;11.50;6.77;;;13.30;97.70;;;;;;4594501;19;20429;-83
2024/01/23 02:51:48;;;;;;;9.23;5.40;;;13.30;97.70;;;;;;4594464;19;20291;-83
2024/01/23 02:53:23;;;;;;;7.90;5.63;;;13.30;97.80;;;;;;4594968;19;20086;-83
2024/01/23 02:55:02;;;;;;;9.00;5.47;;;13.30;97.70;;;;;;4594386;19;20073;-83
2024/01/23 02:56:36;;;;;;;9.40;6.70;;;13.30;97.70;;;;;;4593541;19;20434;-83
2024/01/23 02:58:11;;;;;;;9.13;5.33;;;13.30;97.60;;;;;;4594065;19;20011;-83
2024/01/23 02:59:46;;;;;;;9.50;5.50;;;13.30;97.60;;;;;;4594541;19;20009;-83
2024/01/23 03:01:21;;;;;;;9.23;5.60;;;13.30;97.70;;;;;;4592864;19;20024;-83
2024/01/23 03:02:57;;;;;;;8.73;4.87;;;13.30;97.70;;;;;;4593761;19;20317;-83
2024/01/23 03:04:30;;;;;;;8.53;4.40;;;13.30;97.80;;;;;;4594354;19;20338;-83
2024/01/23 03:06:07;;;;;;;11.20;6.00;;;13.30;98.60;;;;;;4593640;19;20029;-83
2024/01/23 03:07:42;;;;;;;8.27;4.67;;;13.40;97.90;;;;;;4594471;19;20006;-83
2024/01/23 03:09:16;;;;;;;9.37;4.70;;;13.30;97.80;;;;;;4594033;19;20005;-83
2024/01/23 03:10:51;;;;;;;8.17;4.63;;;13.40;97.80;;;;;;4594310;19;20073;-83
2024/01/23 03:12:27;;;;;;;8.73;5.17;;;13.40;97.90;;;;;;4592688;19;20498;-83
2024/01/23 03:14:02;;;;;;;9.80;4.80;;;13.40;97.80;;;;;;4592970;19;20008;-83
2024/01/23 03:15:36;;;;;;;7.93;4.43;;;13.40;97.70;;;;;;4593656;19;20417;-83
2024/01/23 03:17:12;;;;;;;10.70;5.70;;;13.40;97.70;;;;;;4591279;19;20022;-83
2024/01/23 03:18:46;;;;;;;9.17;4.93;;;13.40;97.60;;;;;;4593276;19;20337;-84
2024/01/23 03:20:20;;;;;;;9.93;4.83;;;13.50;98.60;;;;;;4592622;19;20003;-83
2024/01/23 03:21:56;;;;;;;7.83;4.30;;;13.50;97.80;;;;;;4593565;19;20015;-83
2024/01/23 03:23:30;;;;;;;7.93;4.53;;;13.50;97.70;;;;;;4592555;19;19998;-83
2024/01/23 03:25:06;;;;;;;8.80;4.37;;;13.50;97.70;;;;;;4592454;19;20006;-83
2024/01/23 03:26:42;;;;;;;9.97;4.67;;;13.50;97.70;;;;;;4592656;19;20010;-83
2024/01/23 03:28:17;;;;;;;9.30;4.83;;;13.50;97.70;;;;;;4593629;19;20441;-83
2024/01/23 03:29:52;;;;;;;10.20;5.03;;;13.60;98.00;;;;;;4593902;19;20287;-84
2024/01/23 03:31:28;;;;;;;9.13;4.47;;;13.50;97.70;;;;;;4592319;19;20445;-83
2024/01/23 03:33:02;;;;;;;10.27;5.10;;;13.50;97.70;;;;;;4593545;19;20002;-83
2024/01/23 03:34:37;;;;;;;10.23;4.80;;;13.50;97.70;;;;;;4592520;19;20062;-83
2024/01/23 03:36:13;;;;;;;10.17;5.13;;;13.50;97.70;;;;;;4592088;19;20010;-84
2024/01/23 03:37:47;;;;;;;12.07;4.90;;;13.60;97.70;;;;;;4593138;19;20002;-84
2024/01/23 03:39:22;;;;;;;9.20;5.00;;;13.60;97.70;;;;;;4592456;19;19998;-83
2024/01/23 03:40:57;;;;;;;10.27;4.33;;;13.50;97.60;;;;;;4593485;19;20006;-84
2024/01/23 03:42:31;;;;;;;10.33;4.70;;;13.50;97.60;;;;;;4593417;19;20007;-84
2024/01/23 03:44:06;;;;;;;8.17;4.43;;;13.50;97.50;;;;;;4593408;19;20080;-84
2024/01/23 03:45:42;;;;;;;11.40;4.93;;;13.60;97.60;;;;;;4593733;19;20406;-84
2024/01/23 03:47:16;;;;;;;10.10;4.57;;;13.50;97.50;;;;;;4592056;19;20012;-84
2024/01/23 03:48:50;;;;;;;9.97;4.90;;;13.50;97.50;;;;;;4593261;19;20309;-83
2024/01/23 03:50:26;;;;;;;9.90;5.30;;;13.50;97.40;;;;;;4593595;19;20009;-84
2024/01/23 03:51:59;;;;;;;9.53;4.73;;;13.60;97.50;;;;;;4593458;19;19998;-84
2024/01/23 03:53:34;;;;;;;8.37;4.50;;;13.60;97.50;;;;;;4593422;19;20025;-84
2024/01/23 03:55:11;;;;;;;10.07;4.97;;;13.60;97.40;;;;;;4593493;19;20010;-83
2024/01/23 03:56:45;;;;;;;11.67;5.03;;;13.60;97.40;;;;;;4592960;19;20017;-84
2024/01/23 03:58:19;;;;;;;9.13;4.60;;;13.60;97.40;;;;;;4592822;19;20002;-84
2024/01/23 03:59:54;;;;;;;11.23;4.90;;;13.60;97.50;;;;;;4593046;19;20082;-84
2024/01/23 04:01:29;;;;;;;10.73;4.97;;;13.50;97.40;;;;;;4593295;19;20436;-83
2024/01/23 04:03:05;;;;;;;11.43;4.80;;;13.50;97.40;;;;;;4593246;19;20006;-83
2024/01/23 04:04:40;;;;;;;8.60;4.80;;;13.60;97.40;;;;;;4593267;19;20006;-83
2024/01/23 04:06:16;;;;;;;11.70;5.30;;;13.50;97.40;;;;;;4591123;19;20022;-84
2024/01/23 04:07:50;;;;;;;8.83;4.97;;;13.60;97.40;;;;;;4592801;19;20003;-83
2024/01/23 04:09:25;;;;;;;9.70;5.37;;;13.50;97.60;;;;;;4592041;19;20014;-84
2024/01/23 04:10:59;;;;;;;8.27;4.57;;;13.60;97.30;;;;;;4592478;19;20039;-84
2024/01/23 04:12:35;;;;;;;9.83;4.93;;;13.50;97.30;;;;;;4592763;19;20013;-84
2024/01/23 04:14:12;;;;;;;13.23;4.90;;;13.50;97.20;;;;;;4593115;19;20006;-84
2024/01/23 04:15:47;;;;;;;11.57;5.57;;;13.60;97.20;;;;;;4592743;19;20010;-84
2024/01/23 04:17:22;;;;;;;10.93;4.77;;;13.60;97.20;;;;;;4591459;19;20022;-84
2024/01/23 04:18:58;;;;;;;9.67;4.43;;;13.50;97.20;;;;;;4592350;19;20465;-83
2024/01/23 04:20:32;;;;;;;9.80;4.73;;;13.50;97.20;;;;;;4591398;19;20020;-84
2024/01/23 04:22:06;;;;;;;9.90;4.97;;;13.50;97.20;;;;;;4591187;19;20066;-84
2024/01/23 04:23:43;;;;;;;9.30;4.30;;;13.50;97.20;;;;;;4592573;19;20011;-84
2024/01/23 04:25:17;;;;;;;10.67;5.00;;;13.50;97.10;;;;;;4591790;19;20452;-84
2024/01/23 04:26:51;;;;;;;10.30;4.87;;;13.60;97.30;;;;;;4590508;19;20007;-83
2024/01/23 04:28:26;;;;;;;7.97;4.53;;;13.50;97.10;;;;;;4592320;19;20011;-84
2024/01/23 04:30:01;;;;;;;9.27;4.80;;;13.50;97.10;;;;;;4592518;19;20081;-84
2024/01/23 04:31:35;;;;;;;9.10;4.20;;;13.50;97.10;;;;;;4592388;19;20006;-83
2024/01/23 04:33:10;;;;;;;9.57;4.63;;;13.50;97.20;;;;;;4591205;19;20007;-84
2024/01/23 04:34:44;;;;;;;10.37;5.00;;;13.50;97.30;;;;;;4592042;19;20006;-84
2024/01/23 04:36:25;;;;;;;10.30;4.27;;;13.40;97.20;;;;;;4591812;19;20003;-84
2024/01/23 04:38:06;;;;;;;9.47;4.40;;;13.40;97.20;;;;;;4592113;19;20011;-84
2024/01/23 04:39:41;;;;;;;8.00;3.90;;;13.40;97.20;;;;;;4592252;19;20460;-84
2024/01/23 04:41:15;;;;;;;8.40;4.67;;;13.40;97.50;;;;;;4592246;19;20017;-84
2024/01/23 04:43:01;;;;;;;8.57;4.57;;;13.40;97.20;;;;;;4594434;19;20299;-86
2024/01/23 04:44:49;;;;;;;9.43;4.23;;;13.50;97.20;;;;;;4591088;19;20023;-87
2024/01/23 04:46:27;;;;;;;9.60;4.83;;;13.50;97.20;;;;;;4590377;19;20073;-84
2024/01/23 04:48:01;;;;;;;10.13;4.63;;;13.60;97.20;;;;;;4590680;19;20011;-79
2024/01/23 04:49:35;;;;;;;8.67;4.00;;;13.60;97.30;;;;;;4591822;19;20017;-81
2024/01/23 04:51:12;;;;;;;8.93;4.50;;;13.70;97.30;;;;;;4592639;19;20094;-82
2024/01/23 04:52:51;;;;;;;11.20;4.60;;;13.80;97.20;;;;;;4592334;19;20007;-83
2024/01/23 04:54:27;;;;;;;8.32;4.22;;;13.80;97.20;;;;;;4590805;19;20441;-82
2024/01/23 04:56:03;;;;;;;10.83;4.97;;;13.90;97.20;;;;;;4591270;19;20014;-82
2024/01/23 04:57:37;;;;;;;9.67;5.13;;;14.10;97.10;;;;;;4589621;19;20070;-83
2024/01/23 04:59:12;;;;;;;9.15;4.68;;;14.20;96.90;;;;;;4589259;19;20019;-83
2024/01/23 05:00:47;;;;;;;10.38;4.97;;;14.40;96.80;;;;;;4590720;19;20006;-82
2024/01/23 05:02:22;;;;;;;9.55;4.60;;;14.50;96.60;;;;;;4590867;19;20081;-82
2024/01/23 05:03:56;;;;;;;11.25;4.28;;;14.60;96.50;;;;;;4590672;19;20013;-82
2024/01/23 05:05:31;;;;;;;7.85;4.40;;;14.70;96.40;;;;;;4589171;19;20026;-82
2024/01/23 05:07:05;;;;;;;9.43;4.80;;;14.70;96.30;;;;;;4588349;19;20003;-82
2024/01/23 05:08:39;;;;;;;8.75;4.47;;;14.80;96.20;;;;;;4591517;19;20005;-82
2024/01/23 05:10:14;;;;;;;9.50;4.72;;;14.70;96.10;;;;;;4592286;19;20331;-81
2024/01/23 05:11:49;;;;;;;11.38;5.15;;;14.70;96.10;;;;;;4592629;19;20020;-82
2024/01/23 05:13:23;;;;;;;9.15;4.25;;;14.70;96.10;;;;;;4590961;19;20009;-81
2024/01/23 05:14:58;;;;;;;10.10;4.38;;;14.90;99.30;;;;;;4592066;19;20002;-78
2024/01/23 05:16:32;;;;;;;8.48;4.13;;;14.80;96.30;;;;;;4589632;19;20018;-78
2024/01/23 05:18:07;;;;;;;8.40;3.75;;;14.70;96.20;;;;;;4590729;19;20525;-78
2024/01/23 05:19:42;;;;;;;11.65;4.13;;;14.70;97.80;;;;;;4590368;19;20014;-78
2024/01/23 05:21:16;;;;;;;7.53;3.75;;;14.70;98.90;;;;;;4591241;19;20006;-78
2024/01/23 05:22:50;;;;;;;7.40;4.38;;;14.60;96.20;;;;;;4591587;19;20011;-79
2024/01/23 05:24:27;;;;;;;8.15;4.45;;;14.60;96.40;;;;;;4591525;19;20015;-78
2024/01/23 05:26:02;;;;;;;9.25;4.15;;;14.50;96.50;;;;;;4591628;19;20014;-79
2024/01/23 05:27:37;;;;;;;9.85;4.25;;;14.40;96.60;;;;;;4590404;19;20017;-79
2024/01/23 05:29:13;;;;;;;8.43;3.88;;;14.40;96.70;;;;;;4591364;19;20023;-78
2024/01/23 05:30:47;;;;;;;10.30;4.73;;;14.40;96.70;;;;;;4591366;19;20010;-78
2024/01/23 05:32:21;;;;;;;8.53;3.93;;;14.40;96.70;;;;;;4591433;19;20006;-78
2024/01/23 05:33:56;;;;;;;10.35;4.85;;;14.50;96.60;;;;;;4590185;19;20014;-78
2024/01/23 05:35:31;;;;;;;10.57;5.07;;;14.50;96.50;;;;;;4591073;19;20003;-79
2024/01/23 05:37:05;;;;;;;9.17;4.30;;;14.50;96.50;;;;;;4593261;19;20019;-79
2024/01/23 05:38:40;;;;;;;8.60;3.80;;;14.60;96.50;;;;;;4595929;19;20002;-78
2024/01/23 05:40:14;;;;;;;10.07;4.23;;;14.60;96.40;;;;;;4594586;19;20070;-78
2024/01/23 05:41:48;;;;;;;7.80;4.33;;;14.70;96.40;;;;;;4594730;19;20003;-79
2024/01/23 05:43:24;;;;;;;7.73;4.20;;;14.70;96.40;;;;;;4595610;19;20074;-78
2024/01/23 05:44:58;;;;;;;9.23;4.30;;;14.80;96.30;;;;;;4595870;19;20010;-79
2024/01/23 05:46:34;;;;;;;13.13;4.73;;;14.80;96.30;;;;;;4595037;19;20006;-79
2024/01/23 05:48:09;;;;;;;10.20;5.43;;;14.90;96.30;;;;;;4595891;19;20007;-78
2024/01/23 05:49:44;;;;;;;16.03;7.70;;;14.90;96.20;;;;;;4594521;19;20017;-78
2024/01/23 05:51:18;;;;;;;17.73;7.37;;;14.90;96.30;;;;;;4595655;19;20090;-78
2024/01/23 05:52:53;;;;;;;17.37;8.40;;;15.00;96.30;;;;;;4595892;19;20017;-78
2024/01/23 05:54:28;;;;;;;16.50;8.23;;;15.00;96.20;;;;;;4595628;19;20009;-78
2024/01/23 05:56:03;;;;;;;20.53;8.90;;;15.00;96.20;;;;;;4595255;19;20013;-77
2024/01/23 05:57:38;;;;;;;23.33;9.32;;;14.90;96.20;;;;;;4594521;19;20010;-77
2024/01/23 05:59:12;;;;;;;19.13;7.90;;;14.90;96.20;;;;;;4593999;19;20027;-78
2024/01/23 06:00:47;;;;;;;16.48;8.25;;;14.90;96.30;;;;;;4595728;19;20006;-78
2024/01/23 06:02:24;;;;;;;13.50;6.20;;;14.90;96.40;;;;;;4595615;19;20039;-78
2024/01/23 06:03:58;;;;;;;13.07;5.67;;;14.80;96.40;;;;;;4595383;19;20010;-78
2024/01/23 06:05:32;;;;;;;11.60;5.43;;;14.80;96.40;;;;;;4594160;19;20007;-78
2024/01/23 06:07:08;;;;;;;22.03;13.70;;;14.80;96.50;;;;;;4593557;19;20002;-78
2024/01/23 06:08:42;;;;;;;10.73;5.35;;;14.70;96.50;;;;;;4595384;19;19995;-78
2024/01/23 06:10:17;;;;;;;9.90;4.80;;;14.60;96.70;;;;;;4595258;19;20002;-79
2024/01/23 06:11:52;;;;;;;12.00;5.07;;;14.60;96.80;;;;;;4594057;19;20010;-78
2024/01/23 06:13:27;;;;;;;11.63;5.32;;;14.60;97.00;;;;;;4594678;19;20014;-79
2024/01/23 06:15:01;;;;;;;11.27;4.83;;;14.50;96.90;;;;;;4595455;19;20449;-78
2024/01/23 06:16:37;;;;;;;13.63;5.23;;;14.40;96.90;;;;;;4593969;19;20326;-78
2024/01/23 06:18:12;;;;;;;11.27;5.63;;;14.40;96.90;;;;;;4593637;19;20010;-79
2024/01/23 06:19:47;;;;;;;10.43;4.43;;;14.30;97.00;;;;;;4594813;19;20389;-79
2024/01/23 06:21:21;;;;;;;9.97;5.03;;;14.30;97.10;;;;;;4593859;19;20350;-79
2024/01/23 06:22:55;;;;;;;8.83;5.00;;;14.20;97.20;;;;;;4594931;19;19999;-79
2024/01/23 06:24:33;;;;;;;15.17;9.03;;;14.10;97.20;;;;;;4595038;19;20415;-79
2024/01/23 06:26:07;;;;;;;15.00;10.23;;;14.10;97.20;;;;;;4594819;19;20058;-79
2024/01/23 06:27:41;;;;;;;14.63;8.93;;;14.10;97.30;;;;;;4595122;19;19999;-78
2024/01/23 06:29:17;;;;;;;12.53;7.50;;;14.00;97.30;;;;;;4594868;19;20310;-78
2024/01/23 06:30:52;;;;;;;11.73;6.90;;;14.00;97.30;;;;;;4595062;19;20002;-78
2024/01/23 06:32:26;;;;;;;16.10;7.97;;;14.00;97.40;;;;;;4594674;19;20093;-77
2024/01/23 06:34:01;;;;;;;13.43;7.27;;;14.00;97.40;;;;;;4593641;19;20010;-78
2024/01/23 06:35:36;;;;;;;11.13;6.47;;;13.90;97.40;;;;;;4594363;19;20434;-77
2024/01/23 06:37:10;;;;;;;10.63;5.47;;;13.90;97.40;;;;;;4593474;19;20344;-78
2024/01/23 06:38:45;;;;;;;9.43;4.70;;;13.90;97.40;;;;;;4594001;19;19999;-78
2024/01/23 06:40:19;;;;;;;9.33;4.83;;;13.90;97.40;;;;;;4594508;19;20024;-78
2024/01/23 06:41:53;;;;;;;8.80;4.53;;;13.90;97.50;;;;;;4593464;19;20322;-77
2024/01/23 06:43:28;;;;;;;8.60;5.00;;;13.80;97.50;;;;;;4594219;19;20066;-78
2024/01/23 06:45:04;;;;;;;8.67;5.43;;;13.80;97.50;;;;;;4594388;19;20037;-78
2024/01/23 06:46:37;;;;;;;12.97;5.77;;;13.80;97.50;;;;;;4593930;19;20022;-78
2024/01/23 06:48:14;;;;;;;9.77;5.67;;;13.80;97.60;;;;;;4593489;19;20010;-79
2024/01/23 06:49:49;;;;;;;15.90;8.13;;;13.70;97.70;;;;;;4593023;19;19998;-78
2024/01/23 06:51:23;;;;;;;13.37;7.13;;;13.70;97.60;;;;;;4593932;19;20023;-78
2024/01/23 06:52:59;;;;;;;16.23;8.07;;;13.70;97.60;;;;;;4594840;19;20029;-78
2024/01/23 06:54:34;;;;;;;15.17;8.70;;;13.60;97.70;;;;;;4594279;19;19998;-79
2024/01/23 06:56:08;;;;;;;13.40;7.67;;;13.60;97.70;;;;;;4593805;19;20006;-77
2024/01/23 06:57:44;;;;;;;11.13;5.63;;;13.60;97.70;;;;;;4594167;19;20484;-78
2024/01/23 06:59:19;;;;;;;10.63;5.30;;;13.60;97.80;;;;;;4593365;19;20085;-78
2024/01/23 07:00:53;;;;;;;13.40;6.03;;;13.60;97.70;;;;;;4594141;19;20010;-76
2024/01/23 07:02:28;;;;;;;10.23;6.07;;;13.50;97.80;;;;;;4594274;19;20007;-79
2024/01/23 07:04:02;;;;;;;9.30;5.47;;;13.50;97.80;;;;;;4594063;19;20003;-80
2024/01/23 07:05:36;;;;;;;10.60;5.90;;;13.50;97.80;;;;;;4594079;19;19998;-78
2024/01/23 07:07:11;;;;;;;10.40;5.83;;;13.50;97.80;;;;;;4592749;19;20078;-78
2024/01/23 07:08:45;;;;;;;11.70;5.33;;;13.50;97.90;;;;;;4594236;19;20006;-77
2024/01/23 07:10:20;;;;;;;11.80;6.43;;;13.50;97.80;;;;;;4592884;19;20295;-81
2024/01/23 07:11:56;;;;;;;15.80;7.23;;;13.40;97.80;;;;;;4593919;19;20427;-79
2024/01/23 07:13:31;;;;;;;17.03;8.60;;;13.40;97.80;;;;;;4594064;19;20436;-79
2024/01/23 07:15:05;;;;;;;14.67;8.10;;;13.40;97.80;;;;;;4593804;19;20003;-79
2024/01/23 07:16:41;;;;;;;13.17;7.17;;;13.40;97.80;;;;;;4592908;19;20014;-79
2024/01/23 07:18:15;;;;;;;11.17;6.00;;;13.40;97.80;;;;;;4593883;19;20030;-78
2024/01/23 07:19:49;;;;;;;13.40;6.07;;;13.40;97.90;;;;;;4593908;19;19999;-78
2024/01/23 07:21:26;;;;;;;9.67;5.53;;;13.40;98.00;;;;;;4593882;19;20300;-76
2024/01/23 07:23:01;;;;;;;10.43;5.70;;;13.40;98.00;;;;;;4593635;19;19998;-75
2024/01/23 07:24:35;;;;;;;10.17;5.33;;;13.40;98.00;;;;;;4593557;19;20070;-75
2024/01/23 07:26:10;;;;;;;10.17;5.13;;;13.30;97.90;;;;;;4593482;19;20010;-76
2024/01/23 07:27:45;;;;;;;10.77;6.33;;;13.30;97.90;;;;;;4593569;19;20073;-75
2024/01/23 07:29:18;;;;;;;11.67;6.33;;;13.30;97.90;;;;;;4593838;19;20057;-75
2024/01/23 07:30:54;;;;;;;11.53;6.80;;;13.40;97.90;;;;;;4593863;19;20029;-82
2024/01/23 07:32:28;;;;;;;11.13;5.97;;;13.30;97.90;;;;;;4592498;19;20441;-81
2024/01/23 07:34:03;;;;;;;10.07;5.60;;;13.30;97.90;;;;;;4593242;19;19998;-77
2024/01/23 07:35:39;;;;;;;13.87;6.83;;;13.30;97.90;;;;;;4593674;19;20029;-74
2024/01/23 07:37:15;;;;;;;13.00;5.90;;;13.30;98.00;;;;;;4592391;19;20006;-77
2024/01/23 07:38:49;;;;;;;11.07;5.50;;;13.30;98.00;;;;;;4591686;19;20070;-78
2024/01/23 07:40:25;;;;;;;11.70;6.67;;;13.30;98.00;;;;;;4593222;19;20014;-75
2024/01/23 07:42:00;;;;;;;9.83;5.60;;;13.30;98.00;;;;;;4593398;19;19999;-79
2024/01/23 07:43:34;;;;;;;9.97;5.97;;;13.30;98.00;;;;;;4592014;19;20017;-74
2024/01/23 07:45:11;;;;;;;10.87;5.63;;;13.30;98.10;;;;;;4591808;19;20339;-76
2024/01/23 07:46:47;;;;;;;13.37;6.23;;;13.30;98.00;;;;;;4591373;19;20003;-78
2024/01/23 07:48:22;;;;;;;12.77;6.23;;;13.30;98.00;;;;;;4592668;19;20010;-74
2024/01/23 07:49:58;;;;;;;13.10;5.90;;;13.30;98.00;;;;;;4593095;19;20918;-74
2024/01/23 07:51:48;;;;;;;10.63;5.80;;;13.20;98.00;;;;;;4593228;19;19998;-73
2024/01/23 07:53:24;;;;;;;10.35;6.15;;;13.30;98.00;;;;;;4591760;19;20006;-78
2024/01/23 07:54:59;;;;;;;11.97;6.67;;;13.30;98.00;;;;;;4592906;19;20003;-77
2024/01/23 07:56:33;;;;;;;14.00;7.07;;;13.30;98.00;;;;;;4592205;19;20011;-73
2024/01/23 07:58:12;;;;;;;14.17;7.37;;;13.30;98.00;;;;;;4593180;19;20013;-82
2024/01/23 07:59:48;;;;;;;13.07;6.87;;;13.30;97.90;;;;;;4589335;19;20029;-79
2024/01/23 08:01:24;;;;;;;16.23;7.27;;;13.30;97.90;;;;;;4593106;19;20106;-77
2024/01/23 08:02:58;;;;;;;13.47;9.40;;;13.30;97.90;;;;;;4593035;19;20314;-75
2024/01/23 08:04:33;;;;;;;18.43;12.40;;;13.40;97.90;;;;;;4593112;19;20502;-85
2024/01/23 08:06:08;;;;;;;21.00;16.27;;;13.30;97.90;;;;;;4591018;19;20010;-79
2024/01/23 08:07:43;;;;;;;16.83;11.97;;;13.30;97.90;;;;;;4592361;19;20006;-79
2024/01/23 08:09:19;;;;;;;16.77;9.83;;;13.30;97.90;;;;;;4592656;19;20006;-80
2024/01/23 08:11:16;;;;;;;16.47;10.20;;;13.30;98.00;;;;;;4592739;19;20007;-90
2024/01/23 08:13:00;;;;;;;13.60;8.87;;;13.30;98.00;;;;;;4591271;19;20449;-85
2024/01/23 08:14:35;;;;;;;20.90;12.20;;;13.30;98.00;;;;;;4592596;19;19998;-76
2024/01/23 08:16:10;;;;;;;18.53;12.20;;;13.30;98.10;;;;;;4592087;19;20002;-77
2024/01/23 08:17:44;;;;;;;17.40;11.27;;;13.30;98.10;;;;;;4591448;19;20010;-73
2024/01/23 08:19:20;;;;;;;23.13;15.57;;;13.30;98.20;;;;;;4591842;19;20006;-79
2024/01/23 08:20:55;;;;;;;16.93;13.17;;;13.30;98.20;;;;;;4591655;19;20017;-74
2024/01/23 08:22:29;;;;;;;18.13;12.37;;;13.20;98.20;;;;;;4592193;19;20003;-73
2024/01/23 08:24:05;;;;;;;16.47;12.60;;;13.20;98.30;;;;;;4592440;19;20007;-72
2024/01/23 08:25:40;;;;;;;11.87;8.13;;;13.20;98.30;;;;;;4592586;19;20002;-73
2024/01/23 08:27:14;;;;;;;16.10;9.47;;;13.20;98.40;;;;;;4591514;19;20006;-73